Time;durP1;ratioP1;P1;durP2;ratioP2;P2;SDS_P1;SDS_P2;PMS_P1;PMS_P2;Temp;Humidity;BMP_temperature;BMP_pressure;BME280_temperature;BME280_humidity;BME280_pressure;Samples;Min_cycle;Max_cycle;Signal;HPM_P1;HPM_P2
2023/06/08 00:00:51;;;;;;;;;;;;;;;17.50;69.86;98962.13;67952;1276;1016449;-62
2023/06/08 00:04:15;;;;;;;22.00;8.50;;;;;;;17.46;70.24;98959.16;67954;1276;1016487;-62
2023/06/08 00:07:19;;;;;;;23.70;10.20;;;;;;;17.48;70.55;98960.74;67985;1276;1016737;-62
2023/06/08 00:10:23;;;;;;;29.80;13.20;;;;;;;17.44;71.27;98958.14;67984;1276;1016406;-63
2023/06/08 00:13:26;;;;;;;;;;;;;;;17.40;70.96;98953.86;67977;1276;1016585;-63
2023/06/08 00:16:29;;;;;;;22.50;6.70;;;;;;;17.17;71.66;98956.56;68032;1276;1016339;-62
2023/06/08 00:19:33;;;;;;;43.70;8.80;;;;;;;17.08;70.70;98961.76;67952;1276;1016061;-64
2023/06/08 00:22:36;;;;;;;36.90;8.10;;;;;;;17.05;72.04;98963.98;68009;1276;1016406;-64
2023/06/08 00:25:40;;;;;;;23.60;8.50;;;;;;;17.08;71.29;98961.34;68005;1276;1016190;-66
2023/06/08 00:28:42;;;;;;;26.70;10.90;;;;;;;17.12;70.17;98964.55;67924;1276;1016355;-62
2023/06/08 00:31:46;;;;;;;25.90;12.90;;;;;;;17.15;71.01;98965.34;67987;1276;1016367;-62
2023/06/08 00:34:48;;;;;;;24.60;12.30;;;;;;;17.29;70.74;98970.39;67942;1276;1016292;-62
2023/06/08 00:37:50;;;;;;;;;;;;;;;17.29;70.48;98970.15;67950;1276;1016778;-65
2023/06/08 00:40:55;;;;;;;25.50;13.70;;;;;;;17.13;72.23;98969.40;68002;1276;1016481;-66
2023/06/08 00:43:58;;;;;;;25.20;12.70;;;;;;;17.18;71.79;98967.61;68011;1276;1016397;-62
2023/06/08 00:47:00;;;;;;;;;;;;;;;17.06;71.06;98968.63;67928;1276;1016905;-61
2023/06/08 00:50:04;;;;;;;26.70;14.30;;;;;;;17.02;70.74;98965.09;67993;1276;1016281;-64
2023/06/08 00:53:08;;;;;;;28.10;15.00;;;;;;;16.90;71.21;98970.64;68003;1276;1016458;-65
2023/06/08 00:56:16;;;;;;;28.10;15.00;;;;;;;16.92;71.32;98973.82;67951;1276;1016432;-67
2023/06/08 00:59:19;;;;;;;27.80;14.70;;;;;;;16.95;70.71;98975.21;67940;1276;1016379;-62
2023/06/08 01:02:23;;;;;;;29.70;15.60;;;;;;;16.99;70.34;98972.92;67930;1276;1016468;-64
2023/06/08 01:05:26;;;;;;;29.60;14.60;;;;;;;16.96;70.53;98977.90;67971;1276;1016166;-65
2023/06/08 01:08:28;;;;;;;25.80;13.20;;;;;;;16.90;70.26;98977.57;67945;1276;1016128;-61
2023/06/08 01:11:31;;;;;;;23.70;11.50;;;;;;;16.82;69.73;98975.07;67931;1276;1016068;-66
2023/06/08 01:14:35;;;;;;;16.40;5.60;;;;;;;16.69;68.75;98972.07;67899;1276;1016524;-64
2023/06/08 01:17:38;;;;;;;19.20;7.70;;;;;;;16.42;69.47;98972.36;67934;1276;1016097;-64
2023/06/08 01:20:41;;;;;;;18.00;6.80;;;;;;;16.40;70.45;98973.19;67990;1276;1016360;-65
2023/06/08 01:23:45;;;;;;;18.90;5.30;;;;;;;16.42;69.86;98972.34;67985;1276;1016375;-65
2023/06/08 01:26:51;;;;;;;19.10;7.40;;;;;;;16.29;68.96;98969.54;67986;1276;1016428;-65
2023/06/08 01:29:54;;;;;;;21.80;8.80;;;;;;;16.05;68.60;98968.30;68009;1276;1016192;-62
2023/06/08 01:32:57;;;;;;;23.60;11.80;;;;;;;15.98;69.52;98967.81;67994;1276;1016352;-62
2023/06/08 01:35:59;;;;;;;35.10;15.20;;;;;;;16.05;70.40;98965.67;67925;1276;1018942;-62
2023/06/08 01:39:03;;;;;;;32.90;15.20;;;;;;;16.11;70.52;98966.37;67996;1276;1016458;-66
2023/06/08 01:42:05;;;;;;;32.80;16.00;;;;;;;16.15;70.79;98968.89;67980;1276;1019869;-64
2023/06/08 01:45:07;;;;;;;32.30;17.00;;;;;;;16.17;70.87;98968.95;67974;1276;1015986;-61
2023/06/08 01:48:10;;;;;;;32.60;17.10;;;;;;;16.13;71.13;98967.50;67947;1276;1016442;-60
2023/06/08 01:51:14;;;;;;;28.80;14.10;;;;;;;16.14;70.97;98967.81;67963;1276;1016237;-61
2023/06/08 01:54:16;;;;;;;34.10;17.90;;;;;;;16.09;70.85;98970.48;67984;1276;1016960;-60
2023/06/08 01:57:19;;;;;;;33.10;17.10;;;;;;;16.04;71.01;98974.22;67975;1276;1016226;-62
2023/06/08 02:00:22;;;;;;;28.40;14.50;;;;;;;16.06;71.48;98977.95;68028;1276;1016154;-61
2023/06/08 02:03:25;;;;;;;;;;;;;;;16.12;70.36;98975.29;68004;1276;1016465;-65
2023/06/08 02:06:27;;;;;;;25.80;12.60;;;;;;;15.96;70.05;98976.80;68004;1276;1015895;-63
2023/06/08 02:09:30;;;;;;;22.60;10.30;;;;;;;15.74;70.33;98978.73;67942;1276;1016471;-63
2023/06/08 02:12:35;;;;;;;23.90;10.90;;;;;;;15.69;70.75;98975.76;68013;1276;1016434;-62
2023/06/08 02:15:38;;;;;;;26.30;10.10;;;;;;;15.62;70.83;98980.69;67967;1276;1016254;-61
2023/06/08 02:18:41;;;;;;;24.90;12.50;;;;;;;15.52;70.97;98977.41;67996;1276;1016353;-61
2023/06/08 02:21:44;;;;;;;26.10;13.30;;;;;;;15.51;70.76;98980.19;67982;1276;1015889;-65
2023/06/08 02:24:46;;;;;;;27.60;13.70;;;;;;;15.53;70.78;98979.13;67948;1276;1016040;-63
2023/06/08 02:27:49;;;;;;;20.00;7.30;;;;;;;15.57;70.72;98977.17;67961;1276;1016282;-65
2023/06/08 02:30:52;;;;;;;27.70;14.50;;;;;;;15.59;70.93;98977.95;67976;1276;1016416;-61
2023/06/08 02:33:55;;;;;;;;;;;;;;;15.41;71.12;98975.66;68015;1276;1016485;-61
2023/06/08 02:36:57;;;;;;;21.20;8.30;;;;;;;15.21;71.00;98979.48;68011;1276;1016436;-66
2023/06/08 02:40:03;;;;;;;23.30;10.40;;;;;;;15.16;71.24;98977.56;68010;1276;1016436;-61
2023/06/08 02:43:08;;;;;;;26.80;13.70;;;;;;;15.18;72.07;98974.25;68007;1276;1016468;-61
2023/06/08 02:46:11;;;;;;;26.30;11.80;;;;;;;15.28;72.20;98977.70;67938;1276;1016413;-62
2023/06/08 02:49:13;;;;;;;;;;;;;;;15.33;71.30;98978.42;68019;1276;1015858;-61
2023/06/08 02:52:16;;;;;;;27.80;14.10;;;;;;;15.34;70.51;98980.81;68033;1276;1016224;-62
2023/06/08 02:55:19;;;;;;;;;;;;;;;15.43;70.62;98983.96;67991;1276;1016318;-63
2023/06/08 02:58:23;;;;;;;;;;;;;;;15.44;70.44;98986.50;68027;1276;1016465;-60
2023/06/08 03:01:30;;;;;;;30.50;16.00;;;;;;;15.48;70.68;98988.73;68022;1276;1016302;-62
2023/06/08 03:04:33;;;;;;;31.60;16.10;;;;;;;15.66;70.90;98989.42;67976;1276;1016461;-61
2023/06/08 03:07:36;;;;;;;29.40;15.40;;;;;;;15.77;70.57;98991.54;67947;1276;1016455;-61
2023/06/08 03:10:40;;;;;;;29.30;15.60;;;;;;;15.85;70.53;98995.16;67981;1276;1016531;-66
2023/06/08 03:13:43;;;;;;;29.40;15.40;;;;;;;15.97;70.13;99003.36;67983;1276;1016332;-62
2023/06/08 03:16:46;;;;;;;29.40;16.00;;;;;;;16.25;69.67;99005.14;67941;1276;1016375;-60
2023/06/08 03:19:49;;;;;;;28.10;14.60;;;;;;;16.39;69.54;99003.11;67982;1276;1018688;-62
2023/06/08 03:22:52;;;;;;;25.60;13.90;;;;;;;16.54;69.22;98998.48;67939;1276;1016397;-61
2023/06/08 03:25:54;;;;;;;25.40;11.50;;;;;;;16.69;68.79;98998.35;67986;1276;1016491;-62
2023/06/08 03:28:57;;;;;;;23.70;11.30;;;;;;;16.71;68.46;98995.38;67963;1272;1015924;-62
2023/06/08 03:32:01;;;;;;;27.00;13.40;;;;;;;16.68;68.16;98994.39;68024;1276;1016681;-62
2023/06/08 03:35:05;;;;;;;24.00;11.10;;;;;;;16.81;67.70;98992.78;67984;1276;1017345;-61
2023/06/08 03:38:08;;;;;;;23.20;11.50;;;;;;;16.78;67.54;98999.38;67976;1276;1018436;-67
2023/06/08 03:41:13;;;;;;;23.50;11.30;;;;;;;16.84;67.15;98992.94;68001;1276;1016138;-63
2023/06/08 03:44:24;;;;;;;24.50;11.80;;;;;;;16.88;67.99;98993.81;68010;1276;1016057;-61
2023/06/08 03:47:27;;;;;;;;;;;;;;;16.99;68.23;98992.92;68018;1276;1016787;-63
2023/06/08 03:50:30;;;;;;;29.10;14.50;;;;;;;17.07;68.57;98992.18;67979;1275;1016305;-61
2023/06/08 03:53:32;;;;;;;24.80;12.30;;;;;;;17.16;68.96;98989.50;68027;1276;1015799;-66
2023/06/08 03:56:35;;;;;;;28.00;12.70;;;;;;;17.48;69.20;98993.50;67979;1276;1016690;-65
2023/06/08 03:59:38;;;;;;;29.60;14.90;;;;;;;17.79;69.24;98987.92;67983;1276;1016699;-64
2023/06/08 04:02:41;;;;;;;30.00;15.70;;;;;;;18.08;69.00;98987.84;67951;1276;1016096;-64
2023/06/08 04:05:44;;;;;;;28.80;15.10;;;;;;;18.16;69.16;98990.17;68005;1276;1016319;-63
2023/06/08 04:08:48;;;;;;;27.20;14.50;;;;;;;18.38;69.82;98985.88;67971;1276;1015741;-64
2023/06/08 04:11:51;;;;;;;26.80;14.50;;;;;;;18.66;69.95;98985.58;67992;1276;1016500;-65
2023/06/08 04:14:54;;;;;;;27.00;14.30;;;;;;;19.05;70.05;98980.49;67942;1276;1016180;-65
2023/06/08 04:17:57;;;;;;;28.80;15.90;;;;;;;19.49;69.87;98982.88;67981;1276;1016468;-63
2023/06/08 04:21:00;;;;;;;29.00;15.70;;;;;;;19.81;68.97;98984.34;67992;1276;1016773;-65
2023/06/08 04:24:03;;;;;;;28.20;15.40;;;;;;;20.11;68.54;98986.34;67925;1269;1016409;-63
2023/06/08 04:27:07;;;;;;;26.30;14.70;;;;;;;20.48;67.95;98988.92;67940;1276;1016876;-63
2023/06/08 04:30:10;;;;;;;25.70;13.70;;;;;;;20.80;67.36;98987.58;67999;1276;1017869;-63
2023/06/08 04:33:13;;;;;;;26.20;13.30;;;;;;;20.91;66.96;98988.61;67998;1276;1016399;-66
2023/06/08 04:36:16;;;;;;;24.90;12.50;;;;;;;21.06;66.41;98989.55;67967;1276;1016088;-67
2023/06/08 04:39:19;;;;;;;26.60;13.00;;;;;;;21.16;66.14;98989.05;67958;1276;1018895;-64
2023/06/08 04:42:23;;;;;;;24.40;11.80;;;;;;;21.40;66.26;98986.80;67840;1276;1017410;-65
2023/06/08 04:45:26;;;;;;;25.40;12.40;;;;;;;21.68;65.58;98985.85;67780;1276;1016557;-64
2023/06/08 04:48:28;;;;;;;25.40;12.30;;;;;;;21.93;65.08;98988.98;67911;1276;1017113;-66
2023/06/08 04:51:31;;;;;;;26.00;11.50;;;;;;;22.21;64.28;98987.36;67964;1276;1016992;-65
2023/06/08 04:54:34;;;;;;;23.80;11.00;;;;;;;22.43;63.85;98993.34;67911;1276;1016232;-67
2023/06/08 04:57:37;;;;;;;25.10;11.00;;;;;;;22.65;63.91;98995.92;67990;1276;1016374;-67
2023/06/08 05:00:42;;;;;;;21.20;8.70;;;;;;;22.83;62.73;98992.27;67987;1276;1016415;-66
2023/06/08 05:03:44;;;;;;;23.20;9.10;;;;;;;22.95;62.29;98993.29;67937;1276;1016387;-66
2023/06/08 05:06:47;;;;;;;20.50;8.20;;;;;;;23.14;61.71;98991.58;67936;1276;1016590;-68
2023/06/08 05:09:49;;;;;;;22.00;7.50;;;;;;;23.13;60.42;98989.77;67989;1276;1015874;-65
2023/06/08 05:12:56;;;;;;;19.70;6.80;;;;;;;23.05;59.80;98992.58;67941;1276;1015833;-65
2023/06/08 05:15:58;;;;;;;19.60;6.90;;;;;;;22.93;60.10;98990.48;67923;1276;1016536;-67
2023/06/08 05:19:03;;;;;;;18.60;6.20;;;;;;;23.09;60.62;98987.31;67937;1276;1016000;-64
2023/06/08 05:22:06;;;;;;;21.70;6.90;;;;;;;23.18;59.79;98988.30;67963;1276;1016633;-67
2023/06/08 05:25:10;;;;;;;19.10;7.00;;;;;;;23.34;59.13;98987.61;67964;1276;1016326;-68
2023/06/08 05:28:12;;;;;;;19.50;6.70;;;;;;;23.51;58.39;98987.52;67908;1276;1018821;-68
2023/06/08 05:31:15;;;;;;;19.30;6.10;;;;;;;23.81;57.62;98991.48;67918;1276;1016607;-68
2023/06/08 05:34:17;;;;;;;18.60;5.30;;;;;;;24.03;57.27;98990.60;67947;1276;1017210;-69
2023/06/08 05:37:21;;;;;;;17.40;5.50;;;;;;;24.30;56.23;98994.05;67915;1276;1016522;-68
2023/06/08 05:40:25;;;;;;;18.40;5.90;;;;;;;24.49;55.42;98995.50;67915;1276;1016385;-70
2023/06/08 05:43:27;;;;;;;17.20;5.50;;;;;;;24.66;54.10;98991.79;67985;1276;1018228;-64
2023/06/08 05:46:30;;;;;;;19.10;5.70;;;;;;;24.69;53.23;98989.75;67991;1276;1016421;-66
2023/06/08 05:49:36;;;;;;;17.10;5.20;;;;;;;24.80;53.98;98986.41;67959;1276;1016421;-65
2023/06/08 05:52:39;;;;;;;18.70;5.80;;;;;;;24.91;53.62;98993.52;67949;1276;1019776;-65
2023/06/08 05:55:42;;;;;;;18.30;5.60;;;;;;;25.01;52.92;98991.04;67916;1276;1017335;-67
2023/06/08 05:58:44;;;;;;;18.10;5.30;;;;;;;24.98;52.02;98993.30;67972;1276;1016370;-63
2023/06/08 06:01:48;;;;;;;17.60;5.70;;;;;;;24.91;51.42;98994.58;67970;1276;1016406;-64
2023/06/08 06:04:56;;;;;;;16.50;5.10;;;;;;;24.85;51.96;98996.81;67937;1276;1016251;-63
2023/06/08 06:07:59;;;;;;;16.10;5.70;;;;;;;24.90;51.31;98993.25;67927;1276;1016484;-64
2023/06/08 06:11:02;;;;;;;18.50;5.80;;;;;;;25.06;51.10;98992.93;67977;1276;1017162;-65
2023/06/08 06:25:01;;;;;;;20.10;6.80;;;;;;;25.15;50.31;98993.96;67956;1276;1016869;-65
2023/06/08 06:28:16;;;;;;;20.00;6.70;;;;;;;25.41;51.37;98994.44;67993;1276;1019230;-64
2023/06/08 06:31:23;;;;;;;19.70;6.60;;;;;;;26.01;50.02;98988.65;67973;1276;1016481;-64
2023/06/08 06:34:26;;;;;;;18.60;6.20;;;;;;;26.17;48.81;98989.73;67956;1276;1017443;-65
2023/06/08 06:37:34;;;;;;;20.60;6.50;;;;;;;26.13;48.67;98990.70;67945;1276;1018172;-68
2023/06/08 06:40:37;;;;;;;21.60;7.30;;;;;;;26.30;48.45;98993.59;67964;1276;1015990;-63
2023/06/08 06:43:39;;;;;;;21.10;6.60;;;;;;;26.56;48.40;98990.90;67905;1276;1016103;-65
2023/06/08 06:46:44;;;;;;;19.50;7.10;;;;;;;26.94;47.87;98983.55;67942;1276;1016492;-63
2023/06/08 06:49:46;;;;;;;19.20;7.40;;;;;;;27.22;47.15;98982.86;67962;1276;1016366;-63
2023/06/08 06:52:49;;;;;;;18.80;6.60;;;;;;;26.99;45.73;98983.98;67918;1276;1016429;-63
2023/06/08 06:55:53;;;;;;;18.00;6.30;;;;;;;26.73;45.60;98986.43;67998;1276;1016190;-63
2023/06/08 06:58:56;;;;;;;18.90;5.80;;;;;;;26.76;46.50;98982.83;67838;1276;1016158;-63
2023/06/08 07:01:59;;;;;;;17.40;5.60;;;;;;;26.86;46.06;98984.11;67919;1276;1016362;-63
2023/06/08 07:05:02;;;;;;;17.50;5.90;;;;;;;26.99;46.12;98985.65;67963;1276;1016176;-63
2023/06/08 07:08:07;;;;;;;18.20;6.10;;;;;;;27.16;45.99;98987.30;67951;1276;1016404;-64
2023/06/08 07:11:11;;;;;;;17.90;5.20;;;;;;;27.50;45.36;98982.95;67894;1276;1016409;-63
2023/06/08 07:14:14;;;;;;;17.30;5.00;;;;;;;27.64;43.58;98975.78;67963;1276;1015911;-68
2023/06/08 07:17:18;;;;;;;19.50;5.60;;;;;;;27.40;43.33;98979.39;67972;1276;1016388;-64
2023/06/08 07:20:21;;;;;;;15.40;5.10;;;;;;;27.35;44.16;98984.32;67978;1276;1016285;-64
2023/06/08 07:23:24;;;;;;;15.50;4.90;;;;;;;27.43;43.65;98984.38;67873;1276;1016461;-64
2023/06/08 07:26:26;;;;;;;16.70;5.00;;;;;;;27.25;43.78;98981.84;67946;1276;1016314;-66
2023/06/08 07:29:29;;;;;;;17.00;5.50;;;;;;;27.23;44.59;98978.15;67934;1276;1016410;-66
2023/06/08 07:32:32;;;;;;;16.00;5.30;;;;;;;27.60;44.68;98978.74;67973;1276;1016383;-63
2023/06/08 07:35:35;;;;;;;17.30;5.20;;;;;;;27.99;43.88;98982.35;67956;1276;1016475;-68
2023/06/08 07:38:38;;;;;;;15.80;5.50;;;;;;;28.09;43.44;98984.05;67959;1276;1016055;-63
2023/06/08 07:41:40;;;;;;;17.20;5.60;;;;;;;28.07;43.11;98983.92;67940;1276;1016466;-68
2023/06/08 07:44:42;;;;;;;16.00;5.50;;;;;;;28.00;42.95;98987.38;67924;1276;1016498;-63
2023/06/08 07:47:45;;;;;;;17.60;5.40;;;;;;;27.80;43.34;98980.48;67942;1276;1016604;-66
2023/06/08 07:50:50;;;;;;;13.20;4.80;;;;;;;27.95;43.56;98981.92;67999;1276;1018023;-67
2023/06/08 07:53:53;;;;;;;15.40;4.60;;;;;;;28.29;42.45;98975.79;67901;1276;1016210;-63
2023/06/08 07:56:58;;;;;;;17.40;5.00;;;;;;;28.28;42.18;98969.45;67962;1276;1016410;-65
2023/06/08 08:00:00;;;;;;;14.70;5.50;;;;;;;28.23;42.91;98972.13;67920;1276;1016419;-68
2023/06/08 08:03:03;;;;;;;16.10;5.00;;;;;;;28.51;42.64;98979.23;67969;1276;1016194;-64
2023/06/08 08:06:06;;;;;;;15.70;5.30;;;;;;;28.83;42.65;98978.33;67978;1276;1015960;-66
2023/06/08 08:09:09;;;;;;;16.80;5.40;;;;;;;29.35;42.46;98975.20;67896;1276;1018194;-65
2023/06/08 08:12:11;;;;;;;16.90;5.40;;;;;;;29.93;41.93;98976.09;67965;1276;1016064;-64
2023/06/08 08:15:14;;;;;;;14.80;5.20;;;;;;;30.23;41.31;98979.89;67895;1276;1016296;-64
2023/06/08 08:18:17;;;;;;;13.70;4.70;;;;;;;30.28;40.51;98982.97;67920;1276;1016915;-65
2023/06/08 08:21:20;;;;;;;14.00;5.10;;;;;;;30.59;40.39;98982.18;67949;1276;1015971;-66
2023/06/08 08:24:22;;;;;;;17.80;5.40;;;;;;;30.82;39.83;98981.75;67878;1276;1016244;-69
2023/06/08 08:27:25;;;;;;;14.40;4.90;;;;;;;30.60;39.09;98981.80;67964;1276;1016396;-65
2023/06/08 08:30:27;;;;;;;16.70;5.50;;;;;;;30.37;39.73;98983.91;67966;1276;1016309;-66
2023/06/08 08:33:30;;;;;;;14.40;5.20;;;;;;;30.80;39.50;98973.76;67943;1276;1016477;-68
2023/06/08 08:36:33;;;;;;;17.00;4.90;;;;;;;31.20;38.64;98972.00;67930;1276;1016119;-64
2023/06/08 08:39:36;;;;;;;14.40;4.90;;;;;;;31.34;38.03;98966.73;67927;1276;1016275;-65
2023/06/08 08:42:38;;;;;;;14.90;5.50;;;;;;;31.47;37.67;98965.15;67929;1276;1016041;-68
2023/06/08 08:45:42;;;;;;;17.50;5.70;;;;;;;31.50;37.58;98966.05;67903;1276;1016446;-69
2023/06/08 08:48:44;;;;;;;15.70;5.20;;;;;;;31.21;37.98;98968.58;67904;1276;1016095;-67
2023/06/08 08:51:48;;;;;;;15.80;5.00;;;;;;;31.17;37.68;98968.90;67887;1276;1016185;-68
2023/06/08 08:54:55;;;;;;;16.10;5.20;;;;;;;31.01;36.78;98971.85;67894;1276;1017109;-65
2023/06/08 08:57:59;;;;;;;16.50;5.40;;;;;;;30.61;37.53;98973.97;67884;1276;1016215;-65
2023/06/08 09:01:03;;;;;;;15.00;5.10;;;;;;;30.23;37.51;98976.16;67899;1276;1016599;-68
2023/06/08 09:04:06;;;;;;;12.50;4.50;;;;;;;30.65;37.68;98974.64;67952;1276;1016557;-65
2023/06/08 09:07:09;;;;;;;14.40;4.90;;;;;;;30.84;37.21;98968.69;67925;1276;1016998;-65
2023/06/08 09:10:11;;;;;;;13.00;4.50;;;;;;;30.84;37.11;98967.53;67865;1276;1016356;-67
2023/06/08 09:13:14;;;;;;;14.30;4.80;;;;;;;30.87;37.19;98964.37;67950;1276;1016238;-67
2023/06/08 09:16:19;;;;;;;12.50;4.40;;;;;;;30.58;37.20;98970.25;67962;1276;1016291;-66
2023/06/08 09:19:23;;;;;;;14.60;4.40;;;;;;;30.15;37.55;98971.81;67890;1276;1016198;-67
2023/06/08 09:22:25;;;;;;;13.20;4.60;;;;;;;29.73;37.97;98967.71;67941;1276;1016038;-64
2023/06/08 09:25:29;;;;;;;12.30;4.00;;;;;;;29.30;38.09;98970.70;67895;1276;1016486;-66
2023/06/08 09:28:33;;;;;;;14.00;4.50;;;;;;;29.33;37.84;98971.61;67935;1276;1016000;-64
2023/06/08 09:31:39;;;;;;;12.70;4.50;;;;;;;29.76;38.78;98964.50;67914;1276;1015853;-69
2023/06/08 09:34:43;;;;;;;12.70;4.10;;;;;;;30.19;38.14;98962.70;67917;1276;1016242;-66
2023/06/08 09:37:46;;;;;;;13.60;4.50;;;;;;;29.84;37.51;98964.84;67966;1276;1016448;-65
2023/06/08 09:40:49;;;;;;;13.90;4.50;;;;;;;29.33;37.64;98964.65;67924;1276;1016470;-68
2023/06/08 09:43:52;;;;;;;14.80;4.80;;;;;;;29.18;38.57;98966.49;67925;1276;1016460;-67
2023/06/08 09:46:55;;;;;;;13.20;4.20;;;;;;;29.27;38.95;98962.12;67905;1276;1016406;-67
2023/06/08 09:49:58;;;;;;;12.00;4.00;;;;;;;30.02;38.31;98952.24;67965;1276;1018930;-65
2023/06/08 09:53:02;;;;;;;11.90;4.00;;;;;;;29.94;37.28;98955.09;67948;1276;1016316;-64
2023/06/08 09:56:05;;;;;;;12.10;3.90;;;;;;;30.21;36.33;98957.09;67950;1276;1016155;-68
2023/06/08 09:59:08;;;;;;;13.30;4.50;;;;;;;30.49;36.00;98953.45;67921;1276;1016435;-67
2023/06/08 10:02:11;;;;;;;15.30;4.30;;;;;;;30.21;36.77;98954.55;67973;1276;1016195;-68
2023/06/08 10:05:14;;;;;;;12.80;4.40;;;;;;;30.64;36.63;98957.08;67936;1276;1017660;-68
2023/06/08 10:08:16;;;;;;;10.70;4.10;;;;;;;30.71;36.34;98958.39;67874;1276;1016713;-66
2023/06/08 10:11:20;;;;;;;10.90;3.90;;;;;;;30.79;35.49;98955.16;67909;1276;1016358;-67
2023/06/08 10:14:23;;;;;;;11.10;4.00;;;;;;;30.34;35.86;98956.21;67915;1276;1016543;-68
2023/06/08 10:17:25;;;;;;;12.20;4.50;;;;;;;30.31;37.00;98957.85;67951;1276;1016407;-69
2023/06/08 10:20:28;;;;;;;10.50;4.20;;;;;;;31.22;37.17;98947.25;67931;1276;1016587;-68
2023/06/08 10:23:30;;;;;;;14.10;5.00;;;;;;;32.08;35.99;98944.20;67898;1276;1016374;-67
2023/06/08 10:26:33;;;;;;;12.80;4.20;;;;;;;32.63;35.51;98943.05;67912;1276;1016672;-67
2023/06/08 10:29:37;;;;;;;12.20;4.40;;;;;;;33.13;34.84;98942.40;67865;1276;1018201;-69
2023/06/08 10:32:42;;;;;;;12.20;4.30;;;;;;;33.27;33.86;98935.83;67918;1276;1016542;-69
2023/06/08 10:35:44;;;;;;;14.80;4.70;;;;;;;33.12;34.26;98938.00;67916;1276;1016412;-67
2023/06/08 10:38:47;;;;;;;12.20;4.30;;;;;;;33.16;31.83;98934.52;67898;1276;1016380;-65
2023/06/08 10:41:49;;;;;;;11.50;4.30;;;;;;;32.93;33.08;98943.38;67942;1276;1016276;-65
2023/06/08 10:44:52;;;;;;;16.20;4.60;;;;;;;33.19;33.04;98941.80;67945;1276;1016410;-68
2023/06/08 10:47:55;;;;;;;13.30;4.50;;;;;;;33.60;32.77;98932.86;67913;1276;1016846;-68
2023/06/08 10:50:57;;;;;;;15.50;5.30;;;;;;;33.99;32.65;98936.03;67929;1276;1016661;-65
2023/06/08 10:54:00;;;;;;;16.70;4.90;;;;;;;34.21;32.48;98934.45;67827;1276;1016650;-66
2023/06/08 10:57:02;;;;;;;13.40;5.10;;;;;;;34.60;31.20;98928.48;67953;1276;1016447;-67
2023/06/08 11:00:05;;;;;;;15.80;5.00;;;;;;;34.64;31.49;98926.14;67917;1276;1016108;-64
2023/06/08 11:03:08;;;;;;;16.00;5.20;;;;;;;34.98;31.34;98923.16;67971;1276;1016721;-64
2023/06/08 11:06:11;;;;;;;14.00;5.00;;;;;;;34.68;30.94;98926.58;67918;1276;1016251;-63
2023/06/08 11:09:14;;;;;;;15.30;5.60;;;;;;;34.22;30.71;98928.07;67958;1276;1016669;-62
2023/06/08 11:12:17;;;;;;;14.50;5.60;;;;;;;33.41;31.30;98929.00;67876;1276;1016281;-63
2023/06/08 11:15:21;;;;;;;15.20;5.20;;;;;;;33.52;31.28;98924.61;67978;1276;1016332;-63
2023/06/08 11:18:24;;;;;;;15.30;5.50;;;;;;;33.22;32.26;98928.54;67912;1276;1016997;-65
2023/06/08 11:21:26;;;;;;;13.20;5.30;;;;;;;33.43;31.56;98925.47;67980;1276;1016451;-63
2023/06/08 11:24:29;;;;;;;16.80;5.70;;;;;;;33.95;31.92;98917.33;67917;1276;1016399;-66
2023/06/08 11:27:31;;;;;;;16.30;5.60;;;;;;;34.48;31.15;98916.90;67931;1276;1018642;-65
2023/06/08 11:30:34;;;;;;;14.30;5.20;;;;;;;34.62;30.97;98920.39;67904;1276;1019696;-64
2023/06/08 11:33:37;;;;;;;15.60;5.20;;;;;;;34.18;30.23;98916.98;67943;1276;1018864;-65
2023/06/08 11:36:40;;;;;;;14.90;5.80;;;;;;;34.03;30.58;98914.33;67923;1276;1016204;-65
2023/06/08 11:39:42;;;;;;;15.80;5.30;;;;;;;34.29;31.49;98911.45;67967;1276;1016800;-63
2023/06/08 11:42:45;;;;;;;16.80;5.70;;;;;;;34.49;30.73;98911.13;67932;1276;1016362;-65
2023/06/08 11:45:47;;;;;;;15.80;5.60;;;;;;;34.40;30.70;98910.83;67940;1276;1016736;-65
2023/06/08 11:48:49;;;;;;;15.20;5.90;;;;;;;34.35;30.78;98916.38;67928;1276;1016176;-66
2023/06/08 11:51:52;;;;;;;15.80;5.70;;;;;;;34.79;30.83;98907.52;67923;1276;1016487;-64
2023/06/08 11:54:55;;;;;;;14.50;5.40;;;;;;;34.53;30.54;98905.66;67913;1276;1016280;-64
2023/06/08 11:57:59;;;;;;;14.90;5.50;;;;;;;34.21;30.51;98901.26;67913;1276;1016415;-64
2023/06/08 12:01:02;;;;;;;14.50;5.10;;;;;;;33.96;30.71;98895.77;67962;1276;1019385;-63
2023/06/08 12:04:05;;;;;;;13.30;5.10;;;;;;;33.49;30.80;98900.23;67976;1276;1016456;-63
2023/06/08 12:07:09;;;;;;;11.00;4.20;;;;;;;33.22;31.45;98897.52;67927;1276;1019021;-62
2023/06/08 12:10:13;;;;;;;13.70;4.80;;;;;;;33.29;31.10;98888.00;67890;1276;1016349;-63
2023/06/08 12:13:16;;;;;;;13.40;4.80;;;;;;;32.86;31.63;98886.67;67927;1276;1016483;-63
2023/06/08 12:16:19;;;;;;;13.00;4.80;;;;;;;32.61;31.34;98885.73;67937;1276;1016484;-65
2023/06/08 12:19:21;;;;;;;14.60;4.90;;;;;;;32.73;31.79;98880.58;67935;1276;1016444;-63
2023/06/08 12:22:24;;;;;;;14.10;4.60;;;;;;;32.49;31.18;98875.98;67929;1276;1016906;-64
2023/06/08 12:25:27;;;;;;;12.70;4.60;;;;;;;31.61;31.87;98873.97;67906;1276;1016428;-63
2023/06/08 12:28:30;;;;;;;13.10;4.20;;;;;;;31.71;32.45;98877.52;67901;1276;1016316;-64
2023/06/08 12:31:32;;;;;;;13.20;4.60;;;;;;;32.64;31.76;98873.41;67923;1276;1016249;-64
2023/06/08 12:34:35;;;;;;;12.50;4.70;;;;;;;32.64;31.76;98868.59;67940;1276;1016138;-63
2023/06/08 12:37:37;;;;;;;16.40;5.00;;;;;;;32.37;31.53;98873.84;67943;1276;1016490;-63
2023/06/08 12:40:43;;;;;;;12.70;4.80;;;;;;;31.48;32.68;98875.60;67921;1276;1016437;-64
2023/06/08 12:43:47;;;;;;;13.20;4.50;;;;;;;31.62;32.88;98876.27;67914;1276;1018003;-64
2023/06/08 12:46:50;;;;;;;10.50;4.10;;;;;;;31.90;32.31;98874.57;67899;1276;1016415;-63
2023/06/08 12:49:53;;;;;;;13.40;4.60;;;;;;;32.26;31.65;98867.48;67942;1276;1016233;-63
2023/06/08 12:52:55;;;;;;;13.10;4.60;;;;;;;32.57;32.14;98861.54;67966;1276;1018703;-64
2023/06/08 12:55:58;;;;;;;14.90;4.60;;;;;;;33.08;31.21;98862.06;67915;1276;1016228;-62
2023/06/08 12:59:01;;;;;;;12.60;4.60;;;;;;;32.49;30.82;98861.52;67894;1276;1016425;-64
2023/06/08 13:02:04;;;;;;;12.40;4.30;;;;;;;31.70;31.79;98862.70;67963;1276;1016500;-65
2023/06/08 13:05:06;;;;;;;15.70;4.90;;;;;;;31.40;32.30;98863.52;67941;1276;1016303;-64
2023/06/08 13:08:09;;;;;;;12.10;4.30;;;;;;;31.41;32.81;98856.77;67890;1276;1016442;-63
2023/06/08 13:11:11;;;;;;;13.30;4.80;;;;;;;31.74;32.27;98850.52;67960;1276;1017220;-63
2023/06/08 13:14:14;;;;;;;12.90;4.80;;;;;;;32.36;32.96;98849.02;67929;1276;1019258;-65
2023/06/08 13:17:16;;;;;;;12.70;4.40;;;;;;;33.22;32.45;98843.98;67908;1276;1016265;-66
2023/06/08 13:20:19;;;;;;;15.70;5.40;;;;;;;33.73;31.37;98846.77;67944;1276;1016567;-63
2023/06/08 13:23:24;;;;;;;16.60;4.80;;;;;;;33.02;30.55;98849.20;67913;1276;1016204;-64
2023/06/08 13:26:26;;;;;;;22.60;7.40;;;;;;;32.02;31.53;98850.98;67967;1276;1016767;-65
2023/06/08 13:29:29;;;;;;;17.50;5.60;;;;;;;32.25;31.93;98853.96;67982;1276;1016261;-63
2023/06/08 13:32:32;;;;;;;14.40;4.60;;;;;;;32.74;31.28;98842.14;67886;1276;1016469;-63
2023/06/08 13:35:34;;;;;;;17.50;4.90;;;;;;;33.02;30.79;98833.74;67954;1276;1017918;-65
2023/06/08 13:38:37;;;;;;;12.00;4.40;;;;;;;32.79;31.10;98836.72;67943;1276;1016518;-62
2023/06/08 13:41:39;;;;;;;15.40;4.80;;;;;;;32.59;31.40;98840.95;67952;1276;1016250;-64
2023/06/08 13:44:45;;;;;;;14.60;4.90;;;;;;;32.51;31.61;98841.40;67969;1276;1016158;-66
2023/06/08 13:47:49;;;;;;;12.30;4.40;;;;;;;32.56;31.98;98841.95;67940;1276;1016392;-65
2023/06/08 13:50:52;;;;;;;20.00;4.80;;;;;;;32.43;31.94;98841.94;67951;1276;1016276;-64
2023/06/08 13:53:54;;;;;;;15.80;4.70;;;;;;;32.22;31.57;98839.80;67954;1276;1016957;-65
2023/06/08 13:56:58;;;;;;;14.60;5.00;;;;;;;31.86;32.10;98833.25;67995;1276;1016462;-62
2023/06/08 14:00:00;;;;;;;12.20;4.30;;;;;;;31.84;31.92;98834.38;67951;1276;1016180;-63
2023/06/08 14:03:03;;;;;;;17.90;5.00;;;;;;;31.54;32.04;98838.38;67976;1276;1016338;-65